Time;durP1;ratioP1;P1;durP2;ratioP2;P2;SDS_P1;SDS_P2;PMS_P1;PMS_P2;Temp;Humidity;BMP_temperature;BMP_pressure;BME280_temperature;BME280_humidity;BME280_pressure;Samples;Min_cycle;Max_cycle;Signal;HPM_P1;HPM_P2
2023/07/07 00:03:15;;;;;;;;;;;19.60;38.00;;;18.82;38.08;101719.94;12253577;19;19943;-86
2023/07/07 00:07:17;;;;;;;;;;;19.50;37.70;;;18.63;37.96;101712.47;12255327;19;19918;-86
2023/07/07 00:11:18;;;;;;;;;;;19.40;37.70;;;18.53;37.90;101712.31;12254561;19;19919;-87
2023/07/07 00:15:20;;;;;;;;;;;19.30;38.00;;;18.57;38.06;101732.28;12251688;19;20033;-86
2023/07/07 00:19:21;;;;;;;;;;;19.30;37.90;;;18.51;37.96;101727.47;12248854;19;20009;-86
2023/07/07 00:23:24;;;;;;;;;;;19.20;37.90;;;18.42;38.15;101712.28;12257426;19;19911;-88
2023/07/07 00:27:25;;;;;;;;;;;19.10;37.90;;;18.44;38.01;101730.66;12262562;19;19947;-87
2023/07/07 00:31:28;;;;;;;;;;;19.10;38.20;;;18.25;38.19;101716.09;12255298;19;19927;-86
2023/07/07 00:35:29;;;;;;;;;;;19.00;38.30;;;18.17;38.18;101715.81;12251474;19;19932;-86
2023/07/07 00:39:31;;;;;;;;;;;18.90;38.10;;;18.09;38.34;101712.88;12252996;19;19945;-87
2023/07/07 00:43:34;;;;;;;;;;;18.90;38.10;;;18.05;38.21;101720.19;12253139;19;19932;-86
2023/07/07 00:48:00;;;;;;;;;;;18.90;38.20;;;17.99;38.50;101720.63;12252540;19;19938;-87
2023/07/07 00:52:02;;;;;;;;;;;18.80;38.20;;;17.99;38.52;101731.19;12251076;19;19929;-87
2023/07/07 00:56:07;;;;;;;;;;;18.70;38.20;;;18.00;38.48;101748.75;12251359;19;20265;-86
2023/07/07 01:00:10;;;;;;;;;;;18.70;38.20;;;17.82;38.41;101719.19;12255089;19;19918;-86
2023/07/07 01:04:16;;;;;;;;;;;18.70;38.30;;;17.90;38.76;101742.41;12248407;19;19919;-86
2023/07/07 01:08:18;;;;;;;;;;;18.70;38.40;;;17.85;38.66;101745.38;12251422;19;19922;-86
2023/07/07 01:12:20;;;;;;;;;;;18.60;38.40;;;17.77;38.48;101741.53;12249900;19;19915;-86
2023/07/07 01:16:43;;;;;;;;;;;18.50;38.40;;;17.76;38.71;101750.41;12247475;19;19923;-86
2023/07/07 01:21:01;;;;;;;;;;;18.50;38.30;;;17.67;38.82;101739.53;12249598;19;19918;-86
2023/07/07 01:25:12;;;;;;;;;;;18.40;38.30;;;17.65;38.64;101744.06;12245815;19;19922;-86
2023/07/07 01:29:39;;;;;;;;;;;18.40;38.40;;;17.54;38.80;101736.03;12248215;19;19987;-86
2023/07/07 01:33:42;;;;;;;;;;;18.30;38.50;;;17.55;38.91;101743.03;12244585;19;19961;-86
2023/07/07 01:37:57;;;;;;;;;;;18.30;38.50;;;17.51;39.02;101744.19;12248762;19;19919;-86
2023/07/07 01:42:03;;;;;;;;;;;18.30;38.60;;;17.49;38.91;101748.72;12249495;19;19978;-86
2023/07/07 01:46:15;;;;;;;;;;;18.20;38.50;;;17.42;39.01;101747.47;12250322;19;19923;-86
2023/07/07 01:50:22;;;;;;;;;;;18.20;38.50;;;17.18;38.86;101707.72;12247549;19;19918;-85
2023/07/07 01:54:26;;;;;;;;;;;18.20;38.50;;;17.33;38.95;101742.78;12244986;19;19926;-86
2023/07/07 01:58:30;;;;;;;;;;;18.20;38.50;;;17.29;38.98;101736.88;12245610;19;19936;-86
2023/07/07 02:02:32;;;;;;;;;;;18.10;38.50;;;17.27;38.98;101740.56;12242348;19;20338;-86
2023/07/07 02:06:33;;;;;;;;;;;18.10;38.60;;;17.01;39.04;101709.69;12246776;19;19923;-86
2023/07/07 02:10:35;;;;;;;;;;;18.00;38.80;;;17.06;38.96;101732.28;12248717;19;19938;-86
2023/07/07 02:14:36;;;;;;;;;;;18.00;38.80;;;17.09;39.03;101755.81;12244997;19;19942;-86
2023/07/07 02:18:38;;;;;;;;;;;17.90;38.50;;;17.01;39.16;101743.13;12242677;19;19928;-86
2023/07/07 02:22:39;;;;;;;;;;;17.90;38.60;;;16.99;39.18;101752.97;12241514;19;19911;-86
2023/07/07 02:26:41;;;;;;;;;;;17.80;38.60;;;16.74;39.36;101711.47;12246704;19;19926;-86
2023/07/07 02:30:45;;;;;;;;;;;17.80;38.70;;;16.86;39.09;101739.72;12245053;19;19918;-86
2023/07/07 02:34:49;;;;;;;;;;;17.70;38.70;;;16.82;39.33;101743.50;12242098;19;19922;-86
2023/07/07 02:38:54;;;;;;;;;;;17.70;38.70;;;16.81;39.42;101749.72;12246683;19;19923;-86
2023/07/07 02:42:55;;;;;;;;;;;17.70;38.70;;;16.56;39.33;101710.88;12247357;19;19926;-86
2023/07/07 02:46:57;;;;;;;;;;;17.60;38.80;;;16.68;39.44;101741.72;12257775;19;19922;-86
2023/07/07 02:51:02;;;;;;;;;;;17.60;38.80;;;16.68;39.50;101754.91;12258157;19;20321;-86
2023/07/07 02:55:04;;;;;;;;;;;17.60;38.80;;;16.68;39.45;101749.63;12253037;19;19918;-86
2023/07/07 02:59:05;;;;;;;;;;;17.50;38.80;;;16.64;39.48;101761.34;12256257;19;20382;-86
2023/07/07 03:03:07;;;;;;;;;;;17.50;38.80;;;16.66;39.39;101761.22;12253590;19;19923;-86
2023/07/07 03:07:08;;;;;;;;;;;17.50;38.80;;;16.59;39.58;101760.78;12247226;19;19926;-86
2023/07/07 03:11:12;;;;;;;;;;;17.50;38.90;;;16.55;39.54;101762.78;12256244;19;20709;-87
2023/07/07 03:15:14;;;;;;;;;;;17.50;38.90;;;16.51;39.77;101760.44;12253631;19;19911;-86
2023/07/07 03:19:20;;;;;;;;;;;17.40;39.00;;;16.44;39.88;101752.03;12253900;19;19918;-86
2023/07/07 03:23:28;;;;;;;;;;;17.40;38.90;;;16.40;39.82;101761.09;12252415;19;19919;-87
2023/07/07 03:27:30;;;;;;;;;;;17.30;39.00;;;16.33;39.67;101765.91;12252935;19;19919;-86
2023/07/07 03:31:32;;;;;;;;;;;17.30;39.10;;;16.30;39.76;101773.16;12252048;19;19925;-86
2023/07/07 03:35:35;;;;;;;;;;;17.20;39.00;;;16.24;40.06;101774.41;12248114;19;19919;-86
2023/07/07 03:39:37;;;;;;;;;;;17.10;39.10;;;16.11;40.05;101760.28;12250704;19;19919;-86
2023/07/07 03:43:39;;;;;;;;;;;17.10;39.20;;;16.16;39.91;101776.66;12247456;19;19929;-86
2023/07/07 03:47:40;;;;;;;;;;;17.00;39.20;;;16.10;40.15;101774.41;12250825;19;19915;-86
2023/07/07 03:51:44;;;;;;;;;;;17.00;39.40;;;16.07;40.15;101782.50;12251887;19;19918;-86
2023/07/07 03:55:47;;;;;;;;;;;17.00;39.30;;;16.03;40.13;101781.84;12248411;19;19967;-86
2023/07/07 03:59:49;;;;;;;;;;;16.90;39.30;;;15.87;39.95;101773.16;12252871;19;19931;-85
2023/07/07 04:03:51;;;;;;;;;;;16.90;39.40;;;15.82;40.15;101773.44;12247471;19;19990;-87
2023/07/07 04:07:53;;;;;;;;;;;16.90;39.50;;;15.86;40.09;101784.66;12248898;19;19919;-87
2023/07/07 04:11:54;;;;;;;;;;;16.80;39.40;;;15.80;40.34;101782.41;12249831;19;19986;-87
2023/07/07 04:16:01;;;;;;;;;;;16.80;39.60;;;15.85;40.21;101804.91;12249707;19;19915;-87
2023/07/07 04:20:05;;;;;;;;;;;16.80;39.60;;;15.84;40.17;101805.81;12251331;19;19915;-87
2023/07/07 04:24:07;;;;;;;;;;;16.70;39.60;;;15.81;40.14;101806.00;12253846;19;19914;-88
2023/07/07 04:28:08;;;;;;;;;;;16.70;39.70;;;15.79;40.27;101807.03;12259320;19;19923;-88
2023/07/07 04:32:10;;;;;;;;;;;16.70;39.90;;;15.74;40.50;101791.50;12250976;19;19922;-88
2023/07/07 04:36:15;;;;;;;;;;;16.70;39.90;;;15.73;40.43;101802.97;12246390;19;19919;-88
2023/07/07 04:40:16;;;;;;;;;;;16.70;39.90;;;15.55;40.59;101770.66;12249627;19;20389;-87
2023/07/07 04:44:18;;;;;;;;;;;16.80;40.10;;;15.87;40.53;101824.06;12248389;19;19940;-87
2023/07/07 04:48:19;;;;;;;;;;;16.80;40.20;;;15.80;40.43;101812.22;12251087;19;19922;-88
2023/07/07 04:52:22;;;;;;;;;;;16.80;40.30;;;15.76;40.62;101791.41;12248556;19;19926;-87
2023/07/07 04:56:23;;;;;;;;;;;16.80;40.30;;;16.01;40.74;101830.28;12244210;19;20023;-88
2023/07/07 05:00:25;;;;;;;;;;;16.90;40.50;;;15.95;40.78;101804.31;12244541;19;19915;-88
2023/07/07 05:04:27;;;;;;;;;;;17.00;40.70;;;16.09;40.87;101817.50;12242459;19;19923;-87
2023/07/07 05:08:33;;;;;;;;;;;17.10;40.80;;;16.28;40.90;101833.03;12247665;19;19918;-87
2023/07/07 05:12:35;;;;;;;;;;;17.20;41.10;;;16.37;40.98;101841.25;12244703;19;19978;-87
2023/07/07 05:16:37;;;;;;;;;;;17.30;41.10;;;16.47;40.98;101838.00;12243535;19;19926;-84
2023/07/07 05:20:39;;;;;;;;;;;17.50;41.10;;;16.49;41.08;101826.44;12246102;19;19926;-83
2023/07/07 05:24:41;;;;;;;;;;;17.60;41.10;;;16.64;41.31;101832.56;12240520;19;19925;-81
2023/07/07 05:28:42;;;;;;;;;;;17.70;41.30;;;16.79;41.35;101844.78;12243806;19;19990;-82
2023/07/07 05:32:44;;;;;;;;;;;17.80;41.40;;;16.77;41.52;101824.75;12243423;19;19941;-82
2023/07/07 05:36:45;;;;;;;;;;;17.90;41.70;;;17.08;41.36;101841.25;12243570;19;19919;-82
2023/07/07 05:40:47;;;;;;;;;;;18.10;41.80;;;17.21;41.57;101844.78;12244902;19;19942;-82
2023/07/07 05:44:49;;;;;;;;;;;18.30;41.70;;;17.46;41.73;101851.91;12239109;19;19914;-82
2023/07/07 05:48:51;;;;;;;;;;;18.50;42.30;;;17.68;41.77;101843.41;12246077;19;19950;-82
2023/07/07 05:52:52;;;;;;;;;;;18.70;42.30;;;17.98;41.94;101855.53;12243752;19;19907;-83
2023/07/07 05:56:58;;;;;;;;;;;19.00;42.60;;;18.24;42.21;101851.09;12240537;19;19923;-82
2023/07/07 06:01:00;;;;;;;;;;;19.30;42.60;;;18.36;42.11;101826.41;12244123;19;19911;-82
2023/07/07 06:05:02;;;;;;;;;;;19.70;42.70;;;18.83;42.34;101853.97;12238866;19;19931;-82
2023/07/07 06:09:06;;;;;;;;;;;20.00;42.80;;;19.21;42.21;101872.38;12242639;19;19919;-82
2023/07/07 06:13:07;;;;;;;;;;;20.30;42.80;;;19.53;42.36;101869.13;12240687;19;19950;-82
2023/07/07 06:17:09;;;;;;;;;;;20.70;42.20;;;19.94;42.67;101889.03;12242206;19;19918;-84
2023/07/07 06:21:11;;;;;;;;;;;21.10;42.20;;;20.22;42.64;101878.97;12257483;19;19978;-83
2023/07/07 06:25:13;;;;;;;;;;;21.50;42.10;;;20.54;42.35;101871.16;12253966;19;19914;-84
2023/07/07 06:29:14;;;;;;;;;;;21.80;41.60;;;20.88;42.49;101879.09;12255313;19;19945;-83
2023/07/07 06:33:17;;;;;;;;;;;22.30;41.50;;;21.16;42.49;101880.34;12253451;19;19918;-83
2023/07/07 06:37:18;;;;;;;;;;;22.60;41.20;;;21.48;42.54;101896.34;12254877;19;19938;-83
2023/07/07 06:41:21;;;;;;;;;;;22.90;40.70;;;21.70;42.13;101887.41;12253893;19;19945;-83
2023/07/07 06:45:23;;;;;;;;;;;23.20;40.70;;;21.96;42.33;101887.03;12254228;19;19993;-83
2023/07/07 06:49:25;;;;;;;;;;;23.40;40.30;;;22.21;42.27;101891.97;12253618;19;19919;-83
2023/07/07 06:53:26;;;;;;;;;;;23.70;40.10;;;22.35;42.16;101879.28;12252117;19;19921;-83
2023/07/07 06:57:28;;;;;;;;;;;23.80;39.90;;;22.38;42.25;101855.91;12253062;19;19926;-82
2023/07/07 07:01:30;;;;;;;;;;;24.00;39.50;;;22.72;41.71;101882.22;12252882;19;19945;-84
2023/07/07 07:05:32;;;;;;;;;;;24.20;39.30;;;22.69;41.78;101853.22;12251980;19;19919;-83
2023/07/07 07:09:34;;;;;;;;;;;24.30;39.00;;;23.06;41.44;101890.75;12251806;19;20253;-83
2023/07/07 07:13:36;;;;;;;;;;;24.50;39.00;;;23.26;41.79;101883.63;12249309;19;19978;-83
2023/07/07 07:17:37;;;;;;;;;;;24.70;39.10;;;23.37;41.82;101872.81;12253675;19;19991;-84
2023/07/07 07:21:39;;;;;;;;;;;24.80;39.30;;;23.64;41.77;101872.09;12250303;19;20265;-82
2023/07/07 07:25:42;;;;;;;;;;;25.10;39.00;;;23.84;41.26;101877.44;12254055;19;19927;-83
2023/07/07 07:29:45;;;;;;;;;;;25.20;39.10;;;24.06;41.32;101882.47;12251419;19;19935;-83
2023/07/07 07:33:51;;;;;;;;;;;25.40;39.20;;;24.15;41.45;101869.22;12248832;19;20411;-83
2023/07/07 07:37:52;;;;;;;;;;;25.60;39.20;;;24.42;41.44;101881.78;12251788;19;19915;-84
2023/07/07 07:41:55;;;;;;;;;;;25.80;39.10;;;24.60;41.35;101873.81;12249500;19;19947;-83
2023/07/07 07:45:56;;;;;;;;;;;26.00;39.00;;;24.85;41.25;101889.16;12249065;19;19911;-85
2023/07/07 07:49:58;;;;;;;;;;;26.20;38.90;;;25.06;41.21;101888.03;12250594;19;19964;-84
2023/07/07 07:54:00;;;;;;;;;;;26.40;38.70;;;25.12;41.02;101858.88;12247975;19;19923;-83
2023/07/07 07:58:01;;;;;;;;;;;26.60;38.60;;;25.43;40.95;101879.91;12251233;19;20314;-83
2023/07/07 08:02:04;;;;;;;;;;;26.80;38.00;;;25.65;41.03;101880.41;12247206;19;19940;-83
2023/07/07 08:06:05;;;;;;;;;;;27.10;38.50;;;25.83;41.03;101898.16;12250514;19;19929;-83
2023/07/07 08:10:08;;;;;;;;;;;27.20;38.00;;;25.88;40.61;101873.59;12249347;19;19935;-83
2023/07/07 08:14:10;;;;;;;;;;;27.30;37.50;;;26.02;40.82;101878.38;12247200;19;19915;-84
2023/07/07 08:18:12;;;;;;;;;;;27.50;37.60;;;26.25;40.60;101899.28;12250383;19;19915;-84
2023/07/07 08:22:20;;;;;;;;;;;27.60;36.70;;;26.35;40.42;101894.63;12246889;19;20319;-84
2023/07/07 08:26:21;;;;;;;;;;;27.70;37.40;;;26.53;40.48;101901.78;12249286;19;19934;-84
2023/07/07 08:30:23;;;;;;;;;;;27.80;37.00;;;26.67;40.23;101898.47;12250450;19;19929;-84
2023/07/07 08:34:25;;;;;;;;;;;28.00;37.50;;;26.59;40.12;101866.28;12247521;19;19939;-83
2023/07/07 08:38:27;;;;;;;;;;;28.10;36.30;;;26.90;39.71;101894.22;12251433;19;19923;-83
2023/07/07 08:42:33;;;;;;;;;;;28.20;36.90;;;27.03;39.77;101896.44;12248032;19;19978;-83
2023/07/07 08:46:52;;;;;;;;;;;28.30;36.40;;;27.14;39.69;101889.91;12244003;19;20137;-83
2023/07/07 08:51:01;;;;;;;;;;;28.40;36.40;;;27.25;39.63;101886.94;12246818;19;19947;-83
2023/07/07 08:55:28;;;;;;;;;;;28.60;36.50;;;27.47;39.27;101889.97;12242684;19;19943;-85
2023/07/07 09:00:07;;;;;;;;;;;28.70;36.50;;;27.59;39.54;101899.34;12247532;19;19944;-83
2023/07/07 09:04:43;;;;;;;;;;;28.80;36.70;;;27.68;39.23;101902.84;12246969;19;19978;-84
2023/07/07 09:08:56;;;;;;;;;;;28.90;36.80;;;27.75;38.99;101888.59;12249265;19;19927;-84
2023/07/07 09:13:03;;;;;;;;;;;29.00;35.30;;;27.86;39.17;101895.50;12245956;19;19922;-84
2023/07/07 09:17:15;;;;;;;;;;;29.10;35.40;;;28.05;38.97;101890.75;12251667;19;19915;-85
2023/07/07 09:21:33;;;;;;;;;;;29.20;36.60;;;28.15;38.72;101884.19;12253450;19;19915;-84
2023/07/07 09:25:40;;;;;;;;;;;29.30;36.40;;;28.20;38.93;101881.81;12257299;19;19926;-85
2023/07/07 09:29:42;;;;;;;;;;;29.50;36.40;;;28.37;38.53;101893.34;12255249;19;19926;-85
2023/07/07 09:33:44;;;;;;;;;;;29.60;36.60;;;28.55;38.29;101892.31;12248732;19;19940;-83
2023/07/07 09:38:06;;;;;;;;;;;29.80;36.80;;;28.66;38.30;101902.69;12246435;19;19922;-83
2023/07/07 09:42:12;;;;;;;;;;;29.90;36.90;;;28.64;38.03;101881.34;12242942;19;19918;-84
2023/07/07 09:46:54;;;;;;;;;;;29.90;35.30;;;28.75;37.70;101888.19;12244378;19;19952;-83
2023/07/07 09:51:01;;;;;;;;;;;29.90;36.00;;;28.84;37.84;101883.59;12244568;19;19958;-83
2023/07/07 09:55:12;;;;;;;;;;;30.00;35.60;;;28.98;37.79;101885.53;12253893;19;19922;-84
2023/07/07 09:59:17;;;;;;;;;;;30.10;35.60;;;28.97;37.61;101866.88;12258565;19;19915;-83
2023/07/07 10:03:32;;;;;;;;;;;30.20;34.80;;;29.10;37.73;101886.81;12253535;19;19914;-82
2023/07/07 10:07:37;;;;;;;;;;;30.20;35.70;;;29.07;37.21;101862.97;12257405;19;19919;-83
2023/07/07 10:11:40;;;;;;;;;;;30.30;35.70;;;29.27;37.31;101878.63;12253177;19;19922;-83
2023/07/07 10:16:04;;;;;;;;;;;30.40;35.50;;;29.32;37.19;101869.00;12253761;19;19918;-83
2023/07/07 10:20:07;;;;;;;;;;;30.40;36.20;;;29.18;36.92;101852.81;12255474;19;19915;-82
2023/07/07 10:24:13;;;;;;;;;;;30.40;31.30;;;29.24;36.34;101869.06;12249284;19;19919;-83
2023/07/07 10:28:17;;;;;;;;;;;30.40;33.40;;;29.28;36.38;101874.94;12256687;19;19911;-84
2023/07/07 10:32:21;;;;;;;;;;;30.40;34.30;;;29.41;36.33;101867.09;12254020;19;20018;-83
2023/07/07 10:36:26;;;;;;;;;;;30.40;34.00;;;29.47;36.74;101869.06;12251007;19;19918;-83
2023/07/07 10:40:28;;;;;;;;;;;30.50;35.30;;;29.45;36.51;101857.63;12255379;19;19939;-84
2023/07/07 10:44:30;;;;;;;;;;;30.50;33.30;;;29.50;36.43;101860.59;12252281;19;19929;-83
2023/07/07 10:48:32;;;;;;;;;;;30.50;34.60;;;29.51;36.21;101827.28;12253408;19;20329;-83
2023/07/07 10:52:52;;;;;;;;;;;30.60;33.80;;;29.72;36.37;101858.09;12251090;19;19923;-84
2023/07/07 10:57:00;;;;;;;;;;;30.60;33.90;;;29.73;35.87;101844.44;12250927;19;20365;-82
2023/07/07 11:01:28;;;;;;;;;;;30.70;34.30;;;29.95;36.05;101855.34;12255331;19;19935;-83
2023/07/07 11:05:41;;;;;;;;;;;30.80;34.40;;;30.09;35.96;101850.97;12255704;19;19915;-82
2023/07/07 11:09:58;;;;;;;;;;;31.00;34.80;;;30.16;35.90;101852.72;12255517;19;20305;-84
2023/07/07 11:14:31;;;;;;;;;;;31.10;34.60;;;30.25;35.90;101852.66;12254673;19;19978;-84
2023/07/07 11:19:04;;;;;;;;;;;31.20;34.80;;;30.33;35.99;101842.63;12253529;19;19957;-84
2023/07/07 11:23:11;;;;;;;;;;;31.30;34.80;;;30.41;35.54;101839.81;12251725;19;19927;-83
2023/07/07 11:27:35;;;;;;;;;;;31.40;34.60;;;30.47;35.56;101838.22;12253215;19;19927;-83
2023/07/07 11:31:59;;;;;;;;;;;31.40;34.40;;;30.54;35.46;101835.59;12254005;19;19922;-83
2023/07/07 11:36:19;;;;;;;;;;;31.50;34.70;;;30.57;35.50;101827.09;12250982;19;19923;-83
2023/07/07 11:40:56;;;;;;;;;;;31.50;32.70;;;30.49;35.18;101813.75;12252649;19;20440;-82
2023/07/07 11:45:02;;;;;;;;;;;31.50;32.60;;;30.49;35.41;101819.13;12246202;19;20329;-84
2023/07/07 11:49:25;;;;;;;;;;;31.50;33.20;;;30.59;35.10;101820.50;12254040;19;19953;-84
2023/07/07 11:53:40;;;;;;;;;;;31.50;34.00;;;30.65;34.95;101817.06;12248646;19;19915;-82
2023/07/07 11:57:59;;;;;;;;;;;31.50;33.80;;;30.72;34.85;101819.81;12248785;19;19918;-82
2023/07/07 12:02:03;;;;;;;;;;;31.60;34.30;;;30.72;34.75;101806.34;12249258;19;19948;-84
2023/07/07 12:06:16;;;;;;;;;;;31.60;34.40;;;30.82;35.00;101820.38;12249246;19;19943;-83
2023/07/07 12:10:19;;;;;;;;;;;31.70;34.30;;;30.87;34.76;101811.72;12247391;19;19930;-83
2023/07/07 12:14:47;;;;;;;;;;;31.70;33.90;;;30.86;34.74;101800.06;12245582;19;20567;-83
2023/07/07 12:18:54;;;;;;;;;;;31.80;34.00;;;31.00;34.57;101811.84;12245439;19;19922;-85
2023/07/07 12:22:58;;;;;;;;;;;31.90;34.10;;;31.11;34.38;101802.41;12245362;19;19922;-83
2023/07/07 12:27:18;;;;;;;;;;;31.90;33.80;;;31.18;34.67;101805.13;12246889;19;19927;-83
2023/07/07 12:31:20;;;;;;;;;;;32.00;33.50;;;31.17;34.47;101806.19;12245600;19;19927;-82
2023/07/07 12:35:56;;;;;;;;;;;32.10;33.70;;;31.20;34.02;101806.59;12244551;19;19922;-84
2023/07/07 12:40:05;;;;;;;;;;;32.10;32.10;;;31.12;34.21;101803.22;12245737;19;19946;-82
2023/07/07 12:44:10;;;;;;;;;;;32.00;28.30;;;31.03;33.61;101805.22;12244614;19;19929;-82
2023/07/07 12:48:19;;;;;;;;;;;32.00;32.00;;;30.96;33.81;101783.56;12244528;19;20291;-83
2023/07/07 12:52:20;;;;;;;;;;;31.90;31.50;;;31.08;33.72;101794.66;12244781;19;19919;-82
2023/07/07 12:56:27;;;;;;;;;;;31.90;32.00;;;31.05;33.74;101786.97;12242594;19;19927;-83
2023/07/07 13:00:31;;;;;;;;;;;31.90;31.00;;;31.15;33.77;101794.72;12245460;19;19919;-83
2023/07/07 13:04:46;;;;;;;;;;;31.90;31.90;;;31.08;33.63;101786.56;12242377;19;19919;-83
2023/07/07 13:09:01;;;;;;;;;;;31.90;33.00;;;31.22;33.28;101792.94;12243834;19;19921;-82
2023/07/07 13:13:23;;;;;;;;;;;31.90;31.70;;;31.27;33.38;101794.00;12240564;19;20299;-83
2023/07/07 13:17:27;;;;;;;;;;;32.00;31.00;;;31.16;32.81;101782.91;12244845;19;19985;-82
2023/07/07 13:21:31;;;;;;;;;;;32.00;31.50;;;31.18;32.99;101781.66;12242491;19;19919;-82
2023/07/07 13:25:33;;;;;;;;;;;32.10;32.30;;;31.24;33.17;101775.47;12240800;19;19982;-83
2023/07/07 13:29:38;;;;;;;;;;;32.00;32.80;;;31.33;33.11;101792.41;12243930;19;19907;-83
2023/07/07 13:33:40;;;;;;;;;;;32.10;31.70;;;31.37;32.61;101780.19;12241427;19;20003;-83
2023/07/07 13:37:42;;;;;;;;;;;32.10;30.60;;;31.30;32.90;101766.63;12243579;19;19922;-82
2023/07/07 13:41:44;;;;;;;;;;;32.20;32.00;;;31.43;32.57;101768.63;12242279;19;19932;-83
2023/07/07 13:45:46;;;;;;;;;;;32.20;31.90;;;31.50;32.84;101761.38;12244520;19;20382;-84
2023/07/07 13:49:47;;;;;;;;;;;32.30;32.70;;;31.66;32.39;101767.50;12243546;19;19938;-85
2023/07/07 13:53:49;;;;;;;;;;;32.40;32.70;;;31.72;32.44;101764.81;12242353;19;19975;-84
2023/07/07 13:57:51;;;;;;;;;;;32.40;32.00;;;31.78;32.72;101770.47;12246503;19;19915;-84
2023/07/07 14:01:53;;;;;;;;;;;32.50;30.40;;;31.77;32.53;101766.94;12241126;19;19922;-83
2023/07/07 14:06:06;;;;;;;;;;;32.50;32.00;;;31.80;32.52;101755.72;12241711;19;19944;-82
2023/07/07 14:10:35;;;;;;;;;;;32.50;31.60;;;31.86;32.52;101757.63;12241991;19;19927;-84
2023/07/07 14:14:38;;;;;;;;;;;32.60;31.70;;;31.86;32.69;101748.69;12238959;19;19926;-83
2023/07/07 14:18:45;;;;;;;;;;;32.60;32.10;;;31.95;32.17;101758.34;12240466;19;19929;-82
2023/07/07 14:22:47;;;;;;;;;;;32.70;29.30;;;31.95;31.94;101758.34;12238996;19;19915;-82
2023/07/07 14:26:50;;;;;;;;;;;32.60;31.90;;;31.89;32.14;101737.47;12242014;19;21451;-83
2023/07/07 14:30:56;;;;;;;;;;;32.70;32.60;;;31.96;31.99;101751.88;12240549;19;19956;-82
2023/07/07 14:34:59;;;;;;;;;;;32.70;32.40;;;31.99;32.42;101737.97;12239086;19;20355;-83
2023/07/07 14:39:03;;;;;;;;;;;32.70;32.30;;;32.08;31.80;101747.59;12242899;19;19919;-83
2023/07/07 14:43:21;;;;;;;;;;;32.80;32.30;;;32.11;31.86;101744.47;12252717;19;19929;-83
2023/07/07 14:47:29;;;;;;;;;;;32.80;32.10;;;32.03;32.09;101725.72;12252206;19;20329;-84
2023/07/07 14:51:54;;;;;;;;;;;32.80;31.30;;;32.08;31.81;101730.50;12252576;19;19943;-83
2023/07/07 14:55:55;;;;;;;;;;;32.80;32.20;;;32.11;31.90;101722.84;12250387;19;19946;-84
2023/07/07 14:59:57;;;;;;;;;;;32.80;31.90;;;32.17;31.81;101726.59;12253283;19;20344;-83
2023/07/07 15:04:05;;;;;;;;;;;32.80;32.30;;;32.24;31.99;101726.63;12247436;19;19948;-82
2023/07/07 15:08:10;;;;;;;;;;;32.90;32.30;;;32.25;31.89;101717.47;12253874;19;19923;-83
2023/07/07 15:12:12;;;;;;;;;;;32.90;31.40;;;32.25;31.97;101714.78;12250737;19;19998;-83
2023/07/07 15:16:18;;;;;;;;;;;32.90;31.60;;;32.21;31.53;101694.59;12249906;19;19955;-83
2023/07/07 15:20:21;;;;;;;;;;;33.00;32.40;;;32.34;31.71;101711.66;12252743;19;19927;-84
2023/07/07 15:24:23;;;;;;;;;;;33.00;32.60;;;32.34;31.31;101702.72;12246163;19;19919;-83
2023/07/07 15:28:24;;;;;;;;;;;33.00;31.40;;;32.41;31.57;101711.69;12251321;19;20337;-83
2023/07/07 15:32:27;;;;;;;;;;;33.10;32.20;;;32.39;31.37;101705.66;12251225;19;19941;-83
2023/07/07 15:36:29;;;;;;;;;;;33.10;32.60;;;32.42;31.36;101712.53;12248247;19;19923;-83
2023/07/07 15:40:31;;;;;;;;;;;33.10;30.90;;;32.39;31.26;101703.78;12251379;19;19923;-82
2023/07/07 15:44:32;;;;;;;;;;;33.00;32.30;;;32.40;31.38;101701.91;12244218;19;19915;-82
2023/07/07 15:48:34;;;;;;;;;;;33.10;32.20;;;32.40;31.21;101697.31;12250943;19;19919;-83
2023/07/07 15:52:35;;;;;;;;;;;33.10;32.70;;;32.40;31.37;101696.47;12244439;19;19915;-83
2023/07/07 15:56:42;;;;;;;;;;;33.00;31.60;;;32.30;31.07;101685.25;12244371;19;19927;-84
2023/07/07 16:00:46;;;;;;;;;;;33.00;31.10;;;32.35;30.89;101698.97;12248491;19;19944;-82
2023/07/07 16:04:48;;;;;;;;;;;33.00;31.80;;;32.34;31.04;101689.19;12244616;19;19915;-85
2023/07/07 16:08:50;;;;;;;;;;;32.90;31.30;;;32.34;31.22;101691.91;12251393;19;19918;-84
2023/07/07 16:12:51;;;;;;;;;;;32.90;31.80;;;32.31;31.07;101684.22;12248458;19;19923;-83
2023/07/07 16:16:53;;;;;;;;;;;32.90;31.80;;;32.27;30.71;101682.94;12245430;19;20338;-84
2023/07/07 16:20:56;;;;;;;;;;;32.80;30.40;;;32.13;31.16;101665.88;12248262;19;19982;-84
2023/07/07 16:24:58;;;;;;;;;;;32.80;31.70;;;32.14;30.85;101673.78;12244804;19;19915;-84
2023/07/07 16:29:00;;;;;;;;;;;32.80;31.00;;;32.04;30.70;101667.94;12249322;19;20357;-83
2023/07/07 16:33:02;;;;;;;;;;;32.70;31.70;;;32.12;30.92;101675.03;12246309;19;19915;-84
2023/07/07 16:37:09;;;;;;;;;;;32.60;31.10;;;32.10;30.75;101680.63;12246698;19;19915;-83
2023/07/07 16:41:19;;;;;;;;;;;32.60;31.50;;;32.05;30.93;101677.69;12247186;19;19999;-83
2023/07/07 16:45:21;;;;;;;;;;;32.60;31.80;;;32.01;30.97;101671.03;12247135;19;19907;-84
2023/07/07 16:49:24;;;;;;;;;;;32.60;31.20;;;31.99;30.85;101675.81;12244523;19;19919;-87
2023/07/07 16:53:26;;;;;;;;;;;32.50;31.80;;;31.91;30.80;101665.16;12242151;19;19946;-87
2023/07/07 16:57:27;;;;;;;;;;;32.40;32.00;;;31.87;30.50;101661.22;12236665;19;19935;-87
2023/07/07 17:01:31;;;;;;;;;;;32.40;32.00;;;31.85;30.34;101663.28;12249518;19;19923;-87
2023/07/07 17:05:32;;;;;;;;;;;32.40;32.00;;;31.92;30.39;101680.34;12245606;19;19929;-88
2023/07/07 17:09:34;;;;;;;;;;;32.40;32.20;;;31.91;30.53;101675.97;12249801;19;19919;-87
2023/07/07 17:13:36;;;;;;;;;;;32.40;32.10;;;31.86;30.53;101668.47;12245019;19;20338;-87
2023/07/07 17:17:37;;;;;;;;;;;32.40;32.20;;;31.72;30.33;101650.56;12246994;19;19974;-87
2023/07/07 17:21:39;;;;;;;;;;;32.40;32.00;;;31.83;30.29;101666.16;12247356;19;19915;-88
2023/07/07 17:25:40;;;;;;;;;;;32.40;32.10;;;31.59;30.66;101628.88;12249308;19;19934;-87
2023/07/07 17:29:41;;;;;;;;;;;32.30;32.10;;;31.79;30.59;101667.63;12245193;19;19979;-87
2023/07/07 17:33:43;;;;;;;;;;;32.30;32.10;;;31.70;30.63;101660.72;12245523;19;19935;-87
2023/07/07 17:37:46;;;;;;;;;;;32.30;32.30;;;31.66;30.41;101662.16;12249264;19;19926;-86
2023/07/07 17:41:48;;;;;;;;;;;32.20;32.20;;;31.62;30.21;101672.56;12243681;19;19914;-86
2023/07/07 17:45:49;;;;;;;;;;;32.10;32.50;;;31.52;30.21;101669.38;12247723;19;19939;-87
2023/07/07 17:49:51;;;;;;;;;;;32.10;32.70;;;31.45;30.66;101669.34;12245066;19;19930;-87
2023/07/07 17:53:52;;;;;;;;;;;32.00;32.90;;;31.39;30.40;101672.00;12247090;19;19927;-87
2023/07/07 17:57:54;;;;;;;;;;;31.90;32.70;;;31.29;30.43;101658.84;12244941;19;19923;-87
2023/07/07 18:01:56;;;;;;;;;;;31.80;32.80;;;31.24;30.84;101666.69;12243663;19;19929;-87
2023/07/07 18:05:57;;;;;;;;;;;31.80;32.90;;;31.16;30.94;101670.38;12244034;19;20431;-87
2023/07/07 18:09:59;;;;;;;;;;;31.60;33.00;;;31.02;30.87;101672.16;12245276;19;20231;-87
2023/07/07 18:14:00;;;;;;;;;;;31.60;33.10;;;30.97;30.80;101676.47;12247564;19;19911;-87
2023/07/07 18:18:02;;;;;;;;;;;31.50;33.20;;;30.80;30.68;101673.22;12249947;19;20174;-87
2023/07/07 18:22:10;;;;;;;;;;;31.30;33.00;;;30.70;30.84;101686.19;12256851;19;19957;-88
2023/07/07 18:26:36;;;;;;;;;;;31.20;33.00;;;30.57;30.92;101681.50;12256909;19;19947;-87